createdAt,value
2023-01-23T00:00:02.627Z,0
2023-01-23T00:01:02.556Z,0
2023-01-23T00:02:05.386Z,0
2023-01-23T00:03:02.593Z,0
2023-01-23T00:04:04.071Z,0
2023-01-23T00:05:02.570Z,0
2023-01-23T00:06:02.777Z,0
2023-01-23T00:07:05.627Z,0
2023-01-23T00:08:02.604Z,0
2023-01-23T00:09:02.791Z,0
2023-01-23T00:10:02.599Z,0
2023-01-23T00:11:02.779Z,0
2023-01-23T00:12:02.691Z,0
2023-01-23T00:13:05.394Z,0
2023-01-23T00:14:02.613Z,0
2023-01-23T00:15:02.674Z,0
2023-01-23T00:16:02.741Z,0
2023-01-23T00:17:02.638Z,0
2023-01-23T00:18:05.369Z,0
2023-01-23T00:19:02.604Z,0
2023-01-23T00:20:02.861Z,0
2023-01-23T00:21:02.599Z,0
2023-01-23T00:22:02.977Z,0
2023-01-23T00:23:02.618Z,0
2023-01-23T00:24:05.749Z,0
2023-01-23T00:25:02.733Z,0
2023-01-23T00:26:02.589Z,0
2023-01-23T00:27:02.644Z,0
2023-01-23T00:28:02.453Z,0
2023-01-23T00:29:05.908Z,0
2023-01-23T00:30:02.636Z,0
2023-01-23T00:31:03.055Z,0
2023-01-23T00:32:02.950Z,0
2023-01-23T00:33:02.596Z,0
2023-01-23T00:34:03.650Z,0
2023-01-23T00:35:05.578Z,0
2023-01-23T00:36:08.589Z,0
2023-01-23T00:37:02.785Z,0
2023-01-23T00:38:04.108Z,0
2023-01-23T00:39:02.653Z,0
2023-01-23T00:40:05.779Z,0
2023-01-23T00:41:02.774Z,0
2023-01-23T00:42:02.697Z,0
2023-01-23T00:43:02.686Z,0
2023-01-23T00:44:02.604Z,0
2023-01-23T00:45:02.635Z,0
2023-01-23T00:46:05.668Z,0
2023-01-23T00:47:02.647Z,0
2023-01-23T00:48:02.619Z,0
2023-01-23T00:49:02.652Z,0
2023-01-23T00:50:02.702Z,0
2023-01-23T00:51:05.906Z,0
2023-01-23T00:52:02.801Z,0
2023-01-23T00:53:02.776Z,0
2023-01-23T00:54:02.779Z,0
2023-01-23T00:55:02.675Z,0
2023-01-23T00:56:02.646Z,0
2023-01-23T00:57:02.799Z,0
2023-01-23T00:58:02.672Z,0
2023-01-23T00:59:05.640Z,0
2023-01-23T01:00:02.688Z,0
2023-01-23T01:01:02.658Z,0
2023-01-23T01:02:05.698Z,0
2023-01-23T01:03:02.891Z,0
2023-01-23T01:04:02.677Z,0
2023-01-23T01:05:02.690Z,0
2023-01-23T01:06:03.680Z,0
2023-01-23T01:07:02.688Z,0
2023-01-23T01:08:02.778Z,0
2023-01-23T01:09:02.763Z,0
2023-01-23T01:10:02.783Z,0
2023-01-23T01:11:03.842Z,0
2023-01-23T01:12:02.688Z,0
2023-01-23T01:13:05.663Z,0
2023-01-23T01:14:02.656Z,0
2023-01-23T01:15:02.669Z,0
2023-01-23T01:16:02.915Z,0
2023-01-23T01:17:02.682Z,0
2023-01-23T01:18:02.745Z,0
2023-01-23T01:19:02.671Z,0
2023-01-23T01:20:02.685Z,0
2023-01-23T01:21:02.722Z,0
2023-01-23T01:22:02.692Z,0
2023-01-23T01:23:02.749Z,0
2023-01-23T01:24:05.739Z,0
2023-01-23T01:25:02.698Z,0
2023-01-23T01:26:02.835Z,0
2023-01-23T01:27:02.858Z,0
2023-01-23T01:28:02.779Z,0
2023-01-23T01:29:02.823Z,0
2023-01-23T01:30:02.711Z,0
2023-01-23T01:31:05.891Z,0
2023-01-23T01:32:03.079Z,0
2023-01-23T01:33:02.723Z,0
2023-01-23T01:34:02.747Z,0
2023-01-23T01:35:02.722Z,0
2023-01-23T01:36:02.761Z,0
2023-01-23T01:37:02.709Z,0
2023-01-23T01:38:02.706Z,0
2023-01-23T01:39:02.702Z,0
2023-01-23T01:40:05.733Z,0
2023-01-23T01:41:02.722Z,0
2023-01-23T01:42:02.828Z,0
2023-01-23T01:43:02.700Z,0
2023-01-23T01:44:02.725Z,0
2023-01-23T01:45:02.845Z,0
2023-01-23T01:46:02.764Z,0
2023-01-23T01:47:02.809Z,0
2023-01-23T01:48:02.757Z,0
2023-01-23T01:49:02.724Z,0
2023-01-23T01:50:02.723Z,0
2023-01-23T01:51:03.021Z,0
2023-01-23T01:52:02.745Z,0
2023-01-23T01:53:02.743Z,0
2023-01-23T01:54:02.724Z,0
2023-01-23T01:55:02.780Z,0
2023-01-23T01:56:05.841Z,0
2023-01-23T01:57:02.740Z,0
2023-01-23T01:58:02.862Z,0
2023-01-23T01:59:02.728Z,0
2023-01-23T02:00:02.757Z,0
2023-01-23T02:01:06.158Z,0
2023-01-23T02:02:03.082Z,0
2023-01-23T02:03:02.812Z,0
2023-01-23T02:04:02.776Z,0
2023-01-23T02:05:02.743Z,0
2023-01-23T02:06:02.775Z,0
2023-01-23T02:07:05.751Z,0
2023-01-23T02:08:02.790Z,0
2023-01-23T02:09:02.756Z,0
2023-01-23T02:10:02.751Z,0
2023-01-23T02:11:02.751Z,0
2023-01-23T02:12:06.064Z,0
2023-01-23T02:13:02.795Z,0
2023-01-23T02:14:02.988Z,0
2023-01-23T02:15:02.787Z,0
2023-01-23T02:16:02.968Z,0
2023-01-23T02:17:02.877Z,0
2023-01-23T02:18:05.880Z,0
2023-01-23T02:19:02.818Z,0
2023-01-23T02:20:02.906Z,0
2023-01-23T02:21:02.763Z,0
2023-01-23T02:22:02.795Z,0
2023-01-23T02:23:03.776Z,0
2023-01-23T02:24:03.804Z,0
2023-01-23T02:25:02.809Z,0
2023-01-23T02:26:02.784Z,0
2023-01-23T02:27:02.796Z,0
2023-01-23T02:28:03.039Z,0
2023-01-23T02:29:05.607Z,0
2023-01-23T02:30:05.741Z,0
2023-01-23T02:31:03.074Z,0
2023-01-23T02:32:03.030Z,0
2023-01-23T02:33:02.934Z,0
2023-01-23T02:34:05.681Z,0
2023-01-23T02:35:02.803Z,0
2023-01-23T02:36:02.813Z,0
2023-01-23T02:37:02.798Z,0
2023-01-23T02:38:02.828Z,0
2023-01-23T02:39:02.803Z,0
2023-01-23T02:40:06.025Z,0
2023-01-23T02:41:06.812Z,0
2023-01-23T02:42:02.816Z,0
2023-01-23T02:43:03.869Z,0
2023-01-23T02:44:03.095Z,0
2023-01-23T02:45:05.779Z,0
2023-01-23T02:46:04.270Z,0
2023-01-23T02:47:02.829Z,0
2023-01-23T02:48:02.811Z,0
2023-01-23T02:49:02.933Z,0
2023-01-23T02:50:02.825Z,0
2023-01-23T02:51:05.985Z,0
2023-01-23T02:52:02.856Z,0
2023-01-23T02:53:02.877Z,0
2023-01-23T02:54:02.944Z,0
2023-01-23T02:55:02.862Z,0
2023-01-23T02:56:03.062Z,0
2023-01-23T02:57:02.855Z,0
2023-01-23T02:58:02.861Z,0
2023-01-23T02:59:02.856Z,0
2023-01-23T03:00:04.205Z,0
2023-01-23T03:01:03.332Z,0
2023-01-23T03:02:06.165Z,0
2023-01-23T03:03:02.886Z,0
2023-01-23T03:04:05.587Z,0
2023-01-23T03:05:02.967Z,0
2023-01-23T03:06:02.825Z,0
2023-01-23T03:07:05.903Z,0
2023-01-23T03:08:02.906Z,0
2023-01-23T03:09:02.854Z,0
2023-01-23T03:10:02.863Z,0
2023-01-23T03:11:05.568Z,0
2023-01-23T03:12:02.862Z,0
2023-01-23T03:13:05.737Z,0
2023-01-23T03:14:02.865Z,0
2023-01-23T03:15:02.882Z,0
2023-01-23T03:16:03.395Z,0
2023-01-23T03:17:03.006Z,0
2023-01-23T03:18:04.545Z,0
2023-01-23T03:19:02.901Z,0
2023-01-23T03:20:02.982Z,0
2023-01-23T03:21:02.989Z,0
2023-01-23T03:22:02.918Z,0
2023-01-23T03:23:02.909Z,0
2023-01-23T03:24:07.051Z,0
2023-01-23T03:25:02.886Z,0
2023-01-23T03:26:02.890Z,0
2023-01-23T03:27:02.891Z,0
2023-01-23T03:28:03.239Z,0
2023-01-23T03:29:05.777Z,0
2023-01-23T03:30:02.963Z,0
2023-01-23T03:31:03.079Z,0
2023-01-23T03:32:03.042Z,0
2023-01-23T03:33:03.121Z,0
2023-01-23T03:34:02.903Z,0
2023-01-23T03:35:02.912Z,0
2023-01-23T03:36:02.911Z,0
2023-01-23T03:37:03.015Z,0
2023-01-23T03:38:03.003Z,0
2023-01-23T03:39:02.755Z,0
2023-01-23T03:40:05.959Z,0
2023-01-23T03:41:02.937Z,0
2023-01-23T03:42:02.996Z,0
2023-01-23T03:43:02.916Z,0
2023-01-23T03:44:02.937Z,0
2023-01-23T03:45:02.950Z,0
2023-01-23T03:46:03.108Z,0
2023-01-23T03:47:02.973Z,0
2023-01-23T03:48:03.148Z,0
2023-01-23T03:49:03.056Z,0
2023-01-23T03:50:02.925Z,0
2023-01-23T03:51:05.984Z,0
2023-01-23T03:52:03.939Z,0
2023-01-23T03:53:03.052Z,0
2023-01-23T03:54:02.916Z,0
2023-01-23T03:55:02.953Z,0
2023-01-23T03:56:02.933Z,0
2023-01-23T03:57:02.978Z,0
2023-01-23T03:58:02.965Z,0
2023-01-23T03:59:02.925Z,0
2023-01-23T04:00:02.985Z,0
2023-01-23T04:01:03.125Z,0
2023-01-23T04:02:02.940Z,0
2023-01-23T04:03:03.310Z,0
2023-01-23T04:04:03.182Z,0
2023-01-23T04:05:03.077Z,0
2023-01-23T04:06:03.070Z,0
2023-01-23T04:07:05.767Z,0
2023-01-23T04:08:03.088Z,0
2023-01-23T04:09:03.056Z,0
2023-01-23T04:10:03.027Z,0
2023-01-23T04:11:02.954Z,0
2023-01-23T04:12:02.996Z,0
2023-01-23T04:13:02.995Z,0
2023-01-23T04:14:02.955Z,0
2023-01-23T04:15:02.973Z,0
2023-01-23T04:16:02.961Z,0
2023-01-23T04:17:03.029Z,0
2023-01-23T04:18:02.978Z,0
2023-01-23T04:19:03.022Z,0
2023-01-23T04:20:03.217Z,0
2023-01-23T04:21:03.109Z,0
2023-01-23T04:22:02.973Z,0
2023-01-23T04:23:05.755Z,0
2023-01-23T04:24:02.963Z,0
2023-01-23T04:25:03.114Z,0
2023-01-23T04:26:02.957Z,0
2023-01-23T04:27:02.978Z,0
2023-01-23T04:28:02.991Z,0
2023-01-23T04:29:03.029Z,0
2023-01-23T04:30:03.022Z,0
2023-01-23T04:31:06.265Z,0
2023-01-23T04:32:03.000Z,0
2023-01-23T04:33:02.979Z,0
2023-01-23T04:34:06.134Z,0
2023-01-23T04:35:03.021Z,0
2023-01-23T04:36:03.250Z,0
2023-01-23T04:37:03.147Z,0
2023-01-23T04:38:03.043Z,0
2023-01-23T04:39:03.871Z,0
2023-01-23T04:40:03.006Z,0
2023-01-23T04:41:03.174Z,0
2023-01-23T04:42:04.037Z,0
2023-01-23T04:43:03.020Z,0
2023-01-23T04:44:03.046Z,0
2023-01-23T04:45:06.095Z,0
2023-01-23T04:46:03.295Z,0
2023-01-23T04:47:03.001Z,0
2023-01-23T04:48:02.894Z,0
2023-01-23T04:49:03.035Z,0
2023-01-23T04:50:06.109Z,0
2023-01-23T04:51:03.307Z,0
2023-01-23T04:52:03.267Z,0
2023-01-23T04:53:03.146Z,0
2023-01-23T04:54:03.035Z,0
2023-01-23T04:55:03.036Z,0
2023-01-23T04:56:06.022Z,0
2023-01-23T04:57:03.125Z,0
2023-01-23T04:58:03.017Z,0
2023-01-23T04:59:03.045Z,0
2023-01-23T05:00:05.125Z,0
2023-01-23T05:01:09.133Z,0
2023-01-23T05:02:03.012Z,0
2023-01-23T05:03:03.035Z,0
2023-01-23T05:04:03.164Z,0
2023-01-23T05:05:06.567Z,0
2023-01-23T05:06:03.101Z,0
2023-01-23T05:07:05.870Z,0
2023-01-23T05:08:03.252Z,0
2023-01-23T05:09:03.167Z,0
2023-01-23T05:10:03.043Z,0
2023-01-23T05:11:03.044Z,0
2023-01-23T05:12:06.186Z,0
2023-01-23T05:13:03.063Z,0
2023-01-23T05:14:03.064Z,0
2023-01-23T05:15:03.034Z,0
2023-01-23T05:16:03.252Z,0
2023-01-23T05:17:03.052Z,0
2023-01-23T05:18:05.812Z,0
2023-01-23T05:19:03.098Z,0
2023-01-23T05:20:03.044Z,0
2023-01-23T05:21:03.054Z,0
2023-01-23T05:22:03.047Z,0
2023-01-23T05:23:08.403Z,0
2023-01-23T05:24:03.133Z,0
2023-01-23T05:25:03.205Z,0
2023-01-23T05:26:03.101Z,0
2023-01-23T05:27:03.075Z,0
2023-01-23T05:28:03.194Z,0
2023-01-23T05:29:05.930Z,0
2023-01-23T05:30:03.183Z,0
2023-01-23T05:31:07.743Z,0
2023-01-23T05:32:03.288Z,0
2023-01-23T05:33:03.266Z,0
2023-01-23T05:34:04.701Z,0
2023-01-23T05:35:03.168Z,0
2023-01-23T05:36:03.148Z,0
2023-01-23T05:37:03.183Z,0
2023-01-23T05:38:03.365Z,0
2023-01-23T05:39:03.409Z,0
2023-01-23T05:40:06.121Z,0
2023-01-23T05:41:03.465Z,0
2023-01-23T05:42:03.198Z,0
2023-01-23T05:43:03.114Z,0
2023-01-23T05:44:06.045Z,0
2023-01-23T05:45:05.864Z,0
2023-01-23T05:46:03.235Z,0
2023-01-23T05:47:03.103Z,0
2023-01-23T05:48:03.289Z,0
2023-01-23T05:49:03.216Z,0
2023-01-23T05:50:03.189Z,0
2023-01-23T05:51:06.444Z,0
2023-01-23T05:52:03.094Z,0
2023-01-23T05:53:03.123Z,0
2023-01-23T05:54:03.181Z,0
2023-01-23T05:55:03.428Z,0
2023-01-23T05:56:05.951Z,0
2023-01-23T05:57:03.097Z,0
2023-01-23T05:58:03.156Z,0
2023-01-23T05:59:03.134Z,0
2023-01-23T06:00:03.258Z,0
2023-01-23T06:01:03.114Z,0
2023-01-23T06:02:03.153Z,0
2023-01-23T06:03:03.178Z,0
2023-01-23T06:04:03.511Z,0
2023-01-23T06:05:03.140Z,0
2023-01-23T06:06:03.127Z,0
2023-01-23T06:07:06.319Z,0
2023-01-23T06:08:04.173Z,0
2023-01-23T06:09:03.157Z,0
2023-01-23T06:10:03.147Z,0
2023-01-23T06:11:03.378Z,0
2023-01-23T06:12:03.274Z,0
2023-01-23T06:13:03.196Z,0
2023-01-23T06:14:03.163Z,0
2023-01-23T06:15:03.143Z,0
2023-01-23T06:16:03.631Z,0
2023-01-23T06:17:03.245Z,0
2023-01-23T06:18:06.466Z,0
2023-01-23T06:19:03.176Z,0
2023-01-23T06:20:03.152Z,0
2023-01-23T06:21:03.185Z,0
2023-01-23T06:22:03.171Z,0
2023-01-23T06:23:03.165Z,0
2023-01-23T06:24:03.175Z,0
2023-01-23T06:25:03.171Z,0
2023-01-23T06:26:03.169Z,0
2023-01-23T06:27:03.553Z,0
2023-01-23T06:28:03.299Z,0
2023-01-23T06:29:03.191Z,0
2023-01-23T06:30:03.179Z,0
2023-01-23T06:31:03.974Z,0
2023-01-23T06:32:03.490Z,0
2023-01-23T06:33:03.246Z,0
2023-01-23T06:34:06.012Z,0
2023-01-23T06:35:03.170Z,0
2023-01-23T06:36:03.216Z,0
2023-01-23T06:37:03.173Z,0
2023-01-23T06:38:03.238Z,0
2023-01-23T06:39:03.203Z,0
2023-01-23T06:40:03.191Z,0
2023-01-23T06:41:03.193Z,0
2023-01-23T06:42:03.004Z,0
2023-01-23T06:43:03.444Z,0
2023-01-23T06:44:03.194Z,0
2023-01-23T06:45:03.199Z,0
2023-01-23T06:46:03.282Z,4
2023-01-23T06:47:03.201Z,4
2023-01-23T06:48:03.319Z,0
2023-01-23T06:49:05.905Z,0
2023-01-23T06:50:06.496Z,4
2023-01-23T06:51:03.367Z,4
2023-01-23T06:52:03.215Z,4
2023-01-23T06:53:03.193Z,4
2023-01-23T06:54:03.249Z,0
2023-01-23T06:55:03.271Z,4
2023-01-23T06:56:03.200Z,4
2023-01-23T06:57:03.249Z,4
2023-01-23T06:58:03.257Z,8
2023-01-23T06:59:03.498Z,4
2023-01-23T07:00:03.407Z,4
2023-01-23T07:01:06.282Z,8
2023-01-23T07:02:03.426Z,8
2023-01-23T07:03:03.506Z,4
2023-01-23T07:04:04.453Z,4
2023-01-23T07:05:03.233Z,8
2023-01-23T07:06:06.226Z,8
2023-01-23T07:07:03.229Z,8
2023-01-23T07:08:04.947Z,8
2023-01-23T07:09:03.237Z,12
2023-01-23T07:10:03.233Z,8
2023-01-23T07:11:03.255Z,8
2023-01-23T07:12:06.046Z,12
2023-01-23T07:13:03.277Z,12
2023-01-23T07:14:03.303Z,16
2023-01-23T07:15:03.511Z,12
2023-01-23T07:16:03.580Z,16
2023-01-23T07:17:06.309Z,12
2023-01-23T07:18:03.263Z,16
2023-01-23T07:19:03.279Z,16
2023-01-23T07:20:03.401Z,20
2023-01-23T07:21:04.262Z,16
2023-01-23T07:22:03.286Z,20
2023-01-23T07:23:07.130Z,20
2023-01-23T07:24:03.280Z,20
2023-01-23T07:25:03.303Z,24
2023-01-23T07:26:03.275Z,20
2023-01-23T07:27:06.004Z,24
2023-01-23T07:28:06.395Z,20
2023-01-23T07:29:04.325Z,24
2023-01-23T07:30:03.312Z,24
2023-01-23T07:31:04.248Z,20
2023-01-23T07:32:04.542Z,24
2023-01-23T07:33:03.305Z,24
2023-01-23T07:34:06.586Z,24
2023-01-23T07:35:06.128Z,28
2023-01-23T07:36:03.304Z,24
2023-01-23T07:37:03.353Z,28
2023-01-23T07:38:03.267Z,28
2023-01-23T07:39:06.311Z,28
2023-01-23T07:40:03.313Z,28
2023-01-23T07:41:03.309Z,28
2023-01-23T07:42:03.329Z,28
2023-01-23T07:43:03.338Z,32
2023-01-23T07:44:03.330Z,32
2023-01-23T07:45:06.329Z,32
2023-01-23T07:46:03.303Z,32
2023-01-23T07:47:03.551Z,32
2023-01-23T07:48:03.340Z,32
2023-01-23T07:49:03.341Z,36
2023-01-23T07:50:06.382Z,32
2023-01-23T07:51:03.603Z,36
2023-01-23T07:52:03.313Z,36
2023-01-23T07:53:03.863Z,40
2023-01-23T07:54:04.321Z,36
2023-01-23T07:55:03.386Z,40
2023-01-23T07:56:06.412Z,40
2023-01-23T07:57:03.314Z,40
2023-01-23T07:58:03.350Z,44
2023-01-23T07:59:04.429Z,44
2023-01-23T08:00:03.333Z,48
2023-01-23T08:01:06.660Z,48
2023-01-23T08:02:03.331Z,48
2023-01-23T08:03:03.672Z,52
2023-01-23T08:04:03.752Z,52
2023-01-23T08:05:03.445Z,52
2023-01-23T08:06:03.295Z,56
2023-01-23T08:07:06.573Z,52
2023-01-23T08:08:22.495Z,52
2023-01-23T08:09:03.318Z,56
2023-01-23T08:10:06.366Z,56
2023-01-23T08:11:06.080Z,56
2023-01-23T08:12:06.143Z,56
2023-01-23T08:13:03.332Z,60
2023-01-23T08:14:03.346Z,64
2023-01-23T08:15:03.354Z,64
2023-01-23T08:16:03.640Z,64
2023-01-23T08:17:03.366Z,64
2023-01-23T08:18:06.207Z,68
2023-01-23T08:19:03.474Z,64
2023-01-23T08:20:03.476Z,68
2023-01-23T08:21:03.414Z,68
2023-01-23T08:22:03.328Z,68
2023-01-23T08:23:12.707Z,68
2023-01-23T08:24:03.385Z,68
2023-01-23T08:25:03.397Z,68
2023-01-23T08:26:03.342Z,72
2023-01-23T08:27:03.507Z,76
2023-01-23T08:28:03.369Z,80
2023-01-23T08:29:03.336Z,76
2023-01-23T08:30:03.377Z,76
2023-01-23T08:31:06.180Z,80
2023-01-23T08:32:03.665Z,88
2023-01-23T08:33:03.341Z,88
2023-01-23T08:34:06.417Z,92
2023-01-23T08:35:03.450Z,92
2023-01-23T08:36:03.491Z,92
2023-01-23T08:37:03.384Z,96
2023-01-23T08:38:03.428Z,100
2023-01-23T08:39:03.520Z,100
2023-01-23T08:40:03.434Z,104
2023-01-23T08:41:03.392Z,100
2023-01-23T08:42:03.401Z,100
2023-01-23T08:43:04.300Z,100
2023-01-23T08:44:04.430Z,100
2023-01-23T08:45:06.276Z,96
2023-01-23T08:46:03.879Z,100
2023-01-23T08:47:03.678Z,100
2023-01-23T08:48:03.391Z,100
2023-01-23T08:49:03.406Z,104
2023-01-23T08:50:03.578Z,108
2023-01-23T08:51:03.574Z,108
2023-01-23T08:52:03.506Z,116
2023-01-23T08:53:04.391Z,116
2023-01-23T08:54:04.550Z,120
2023-01-23T08:55:04.606Z,128
2023-01-23T08:56:03.447Z,136
2023-01-23T08:57:03.435Z,136
2023-01-23T08:58:03.468Z,144
2023-01-23T08:59:03.447Z,152
2023-01-23T09:00:03.481Z,164
2023-01-23T09:01:03.778Z,176
2023-01-23T09:02:03.691Z,184
2023-01-23T09:03:03.421Z,188
2023-01-23T09:04:03.418Z,184
2023-01-23T09:05:03.443Z,188
2023-01-23T09:06:03.571Z,180
2023-01-23T09:07:03.406Z,176
2023-01-23T09:08:03.552Z,176
2023-01-23T09:09:03.482Z,180
2023-01-23T09:10:03.449Z,180
2023-01-23T09:11:03.547Z,184
2023-01-23T09:12:03.433Z,176
2023-01-23T09:13:03.459Z,180
2023-01-23T09:14:03.433Z,188
2023-01-23T09:15:03.522Z,192
2023-01-23T09:16:03.628Z,208
2023-01-23T09:17:06.530Z,236
2023-01-23T09:18:03.428Z,252
2023-01-23T09:19:03.448Z,248
2023-01-23T09:20:03.518Z,240
2023-01-23T09:21:03.456Z,224
2023-01-23T09:22:03.689Z,216
2023-01-23T09:23:03.447Z,208
2023-01-23T09:24:03.602Z,208
2023-01-23T09:25:03.535Z,216
2023-01-23T09:26:03.433Z,228
2023-01-23T09:27:03.739Z,248
2023-01-23T09:28:06.267Z,256
2023-01-23T09:29:03.449Z,280
2023-01-23T09:30:03.487Z,300
2023-01-23T09:31:03.677Z,292
2023-01-23T09:32:03.793Z,300
2023-01-23T09:33:06.556Z,304
2023-01-23T09:34:03.534Z,292
2023-01-23T09:35:03.517Z,252
2023-01-23T09:36:03.449Z,236
2023-01-23T09:37:03.476Z,240
2023-01-23T09:38:06.821Z,236
2023-01-23T09:39:06.614Z,236
2023-01-23T09:40:03.630Z,244
2023-01-23T09:41:03.477Z,248
2023-01-23T09:42:03.493Z,252
2023-01-23T09:43:03.579Z,252
2023-01-23T09:44:06.275Z,248
2023-01-23T09:45:03.553Z,244
2023-01-23T09:46:03.773Z,252
2023-01-23T09:47:03.475Z,244
2023-01-23T09:48:03.486Z,248
2023-01-23T09:49:03.481Z,252
2023-01-23T09:50:06.299Z,252
2023-01-23T09:51:06.748Z,260
2023-01-23T09:52:03.469Z,244
2023-01-23T09:53:03.456Z,252
2023-01-23T09:54:03.751Z,256
2023-01-23T09:55:04.883Z,284
2023-01-23T09:56:05.129Z,348
2023-01-23T09:57:03.535Z,408
2023-01-23T09:58:03.534Z,472
2023-01-23T09:59:03.644Z,492
2023-01-23T10:00:07.454Z,528
2023-01-23T10:01:06.879Z,592
2023-01-23T10:02:03.624Z,532
2023-01-23T10:03:03.524Z,444
2023-01-23T10:04:03.885Z,360
2023-01-23T10:05:03.562Z,312
2023-01-23T10:06:06.259Z,272
2023-01-23T10:07:03.577Z,260
2023-01-23T10:08:03.510Z,272
2023-01-23T10:09:03.505Z,260
2023-01-23T10:10:07.432Z,248
2023-01-23T10:11:03.537Z,236
2023-01-23T10:12:06.554Z,228
2023-01-23T10:13:03.527Z,232
2023-01-23T10:14:03.521Z,236
2023-01-23T10:15:03.702Z,236
2023-01-23T10:16:03.544Z,232
2023-01-23T10:17:06.604Z,212
2023-01-23T10:18:05.788Z,200
2023-01-23T10:19:03.549Z,200
2023-01-23T10:20:06.412Z,208
2023-01-23T10:21:03.689Z,224
2023-01-23T10:22:03.542Z,236
2023-01-23T10:23:06.336Z,264
2023-01-23T10:24:03.574Z,288
2023-01-23T10:25:04.561Z,300
2023-01-23T10:26:03.857Z,292
2023-01-23T10:27:03.592Z,296
2023-01-23T10:28:06.557Z,324
2023-01-23T10:29:03.557Z,376
2023-01-23T10:30:03.556Z,420
2023-01-23T10:31:04.087Z,408
2023-01-23T10:32:03.666Z,408
2023-01-23T10:33:06.288Z,404
2023-01-23T10:34:08.603Z,400
2023-01-23T10:35:03.605Z,420
2023-01-23T10:36:03.588Z,464
2023-01-23T10:37:03.675Z,508
2023-01-23T10:38:03.555Z,520
2023-01-23T10:39:06.370Z,548
2023-01-23T10:40:03.722Z,552
2023-01-23T10:41:03.565Z,504
2023-01-23T10:42:10.839Z,520
2023-01-23T10:43:03.691Z,492
2023-01-23T10:44:03.700Z,516
2023-01-23T10:45:06.681Z,596
2023-01-23T10:46:04.052Z,672
2023-01-23T10:47:03.762Z,700
2023-01-23T10:48:09.227Z,684
2023-01-23T10:49:03.589Z,700
2023-01-23T10:50:06.379Z,704
2023-01-23T10:51:03.795Z,720
2023-01-23T10:52:03.857Z,744
2023-01-23T10:53:03.614Z,728
2023-01-23T10:54:12.994Z,668
2023-01-23T10:55:03.610Z,608
2023-01-23T10:56:06.827Z,572
2023-01-23T10:57:03.630Z,508
2023-01-23T10:58:03.878Z,464
2023-01-23T10:59:03.605Z,444
2023-01-23T11:00:03.897Z,440
2023-01-23T11:01:06.992Z,404
2023-01-23T11:02:05.217Z,340
2023-01-23T11:03:04.283Z,312
2023-01-23T11:04:03.591Z,256
2023-01-23T11:05:03.652Z,244
2023-01-23T11:06:03.639Z,248
2023-01-23T11:07:03.601Z,284
2023-01-23T11:08:03.612Z,308
2023-01-23T11:09:03.641Z,328
2023-01-23T11:10:06.975Z,320
2023-01-23T11:11:03.625Z,304
2023-01-23T11:12:06.734Z,280
2023-01-23T11:13:05.361Z,276
2023-01-23T11:14:03.924Z,280
2023-01-23T11:15:03.640Z,272
2023-01-23T11:16:04.102Z,260
2023-01-23T11:17:03.661Z,268
2023-01-23T11:18:03.778Z,276
2023-01-23T11:19:03.771Z,280
2023-01-23T11:20:03.630Z,288
2023-01-23T11:21:03.639Z,300
2023-01-23T11:22:03.627Z,324
2023-01-23T11:23:03.628Z,336
2023-01-23T11:24:06.041Z,344
2023-01-23T11:25:03.726Z,344
2023-01-23T11:26:03.651Z,348
2023-01-23T11:27:03.664Z,356
2023-01-23T11:28:03.885Z,372
2023-01-23T11:29:03.645Z,388
2023-01-23T11:30:03.772Z,408
2023-01-23T11:31:21.119Z,420
2023-01-23T11:32:06.969Z,436
2023-01-23T11:33:03.662Z,456
2023-01-23T11:34:03.689Z,468
2023-01-23T11:35:03.801Z,464
2023-01-23T11:36:03.707Z,444
2023-01-23T11:37:03.644Z,404
2023-01-23T11:38:03.677Z,396
2023-01-23T11:39:03.689Z,400
2023-01-23T11:40:03.646Z,420
2023-01-23T11:41:03.842Z,420
2023-01-23T11:42:06.434Z,408
2023-01-23T11:43:04.757Z,400
2023-01-23T11:44:08.251Z,372
2023-01-23T11:45:04.038Z,392
2023-01-23T11:46:04.208Z,368
2023-01-23T11:47:03.797Z,376
2023-01-23T11:48:03.773Z,356
2023-01-23T11:49:03.695Z,348
2023-01-23T11:50:03.722Z,364
2023-01-23T11:51:04.058Z,388
2023-01-23T11:52:03.659Z,380
2023-01-23T11:53:03.650Z,392
2023-01-23T11:54:03.981Z,400
2023-01-23T11:55:06.704Z,400
2023-01-23T11:56:03.702Z,408
2023-01-23T11:57:03.682Z,404
2023-01-23T11:58:03.711Z,408
2023-01-23T11:59:03.779Z,412
2023-01-23T12:00:06.588Z,408
2023-01-23T12:01:03.710Z,344
2023-01-23T12:02:12.196Z,396
2023-01-23T12:03:04.041Z,380
2023-01-23T12:04:04.081Z,364
2023-01-23T12:05:03.719Z,352
2023-01-23T12:06:25.338Z,372
2023-01-23T12:07:03.777Z,372
2023-01-23T12:08:03.765Z,368
2023-01-23T12:09:03.804Z,372
2023-01-23T12:10:03.715Z,356
2023-01-23T12:11:05.137Z,360
2023-01-23T12:18:06.763Z,280
2023-01-23T12:19:16.355Z,248
2023-01-23T12:20:16.357Z,264
2023-01-23T12:21:16.423Z,264
2023-01-23T12:22:17.689Z,228
2023-01-23T12:23:19.263Z,216
2023-01-23T12:24:16.382Z,224
2023-01-23T12:25:16.390Z,244
2023-01-23T12:26:16.394Z,236
2023-01-23T12:27:16.347Z,244
2023-01-23T12:28:17.970Z,244
2023-01-23T12:29:19.143Z,256
2023-01-23T12:30:16.347Z,276
2023-01-23T12:31:16.881Z,312
2023-01-23T12:32:16.795Z,320
2023-01-23T12:33:16.745Z,300
2023-01-23T12:34:19.498Z,308
2023-01-23T12:35:16.468Z,292
2023-01-23T12:36:16.375Z,296
2023-01-23T12:37:35.255Z,320
2023-01-23T12:38:16.661Z,336
2023-01-23T12:39:19.094Z,336
2023-01-23T12:40:19.768Z,324
2023-01-23T12:41:16.510Z,320
2023-01-23T12:42:16.484Z,336
2023-01-23T12:43:16.414Z,324
2023-01-23T12:44:16.514Z,336
2023-01-23T12:45:19.740Z,336
2023-01-23T12:46:16.423Z,336
2023-01-23T12:47:16.705Z,336
2023-01-23T12:48:16.496Z,372
2023-01-23T12:49:16.823Z,396
2023-01-23T12:50:19.525Z,356
2023-01-23T12:51:19.749Z,348
2023-01-23T12:52:16.414Z,356
2023-01-23T12:53:16.427Z,364
2023-01-23T12:54:16.566Z,356
2023-01-23T12:55:22.298Z,360
2023-01-23T12:56:19.513Z,328
2023-01-23T12:57:16.616Z,308
2023-01-23T12:58:16.858Z,280
2023-01-23T12:59:16.514Z,264
2023-01-23T13:00:16.500Z,252
2023-01-23T13:01:16.768Z,236
2023-01-23T13:02:20.528Z,224
2023-01-23T13:03:22.924Z,216
2023-01-23T13:04:16.431Z,212
2023-01-23T13:05:16.840Z,204
2023-01-23T13:06:16.445Z,200
2023-01-23T13:07:19.213Z,188
2023-01-23T13:08:21.309Z,180
2023-01-23T13:09:24.989Z,172
2023-01-23T13:10:16.575Z,172
2023-01-23T13:11:17.690Z,164
2023-01-23T13:12:16.594Z,164
2023-01-23T13:13:16.455Z,168
2023-01-23T13:14:16.470Z,176
2023-01-23T13:15:46.883Z,180
2023-01-23T13:16:16.718Z,176
2023-01-23T13:17:16.669Z,180
2023-01-23T13:18:20.389Z,204
2023-01-23T13:19:16.474Z,212
2023-01-23T13:20:16.467Z,208
2023-01-23T13:21:16.577Z,196
2023-01-23T13:22:32.718Z,208
2023-01-23T13:23:16.472Z,204
2023-01-23T13:24:16.440Z,200
2023-01-23T13:25:16.455Z,200
2023-01-23T13:26:16.623Z,196
2023-01-23T13:27:16.638Z,208
2023-01-23T13:28:17.955Z,220
2023-01-23T13:29:16.520Z,216
2023-01-23T13:30:16.450Z,212
2023-01-23T13:31:16.919Z,216
2023-01-23T13:32:17.962Z,220
2023-01-23T13:33:16.670Z,228
2023-01-23T13:34:24.467Z,244
2023-01-23T13:35:16.589Z,240
2023-01-23T13:36:16.487Z,228
2023-01-23T13:37:17.039Z,212
2023-01-23T13:38:16.598Z,188
2023-01-23T13:39:16.652Z,188
2023-01-23T13:40:16.571Z,188
2023-01-23T13:41:16.558Z,192
2023-01-23T13:42:16.667Z,192
2023-01-23T13:43:16.524Z,188
2023-01-23T13:44:21.509Z,196
2023-01-23T13:45:19.998Z,216
2023-01-23T13:46:18.293Z,224
2023-01-23T13:47:17.073Z,220
2023-01-23T13:48:17.129Z,224
2023-01-23T13:49:17.049Z,232
2023-01-23T13:50:19.795Z,232
2023-01-23T13:51:17.066Z,232
2023-01-23T13:52:16.975Z,240
2023-01-23T13:53:17.472Z,228
2023-01-23T13:54:16.916Z,220
2023-01-23T13:55:17.026Z,240
2023-01-23T13:56:19.984Z,208
2023-01-23T13:57:17.160Z,204
2023-01-23T13:58:17.373Z,196
2023-01-23T13:59:17.093Z,188
2023-01-23T14:00:16.497Z,176
2023-01-23T14:01:19.990Z,172
2023-01-23T14:02:16.532Z,168
2023-01-23T14:03:16.532Z,164
2023-01-23T14:04:16.521Z,168
2023-01-23T14:05:16.492Z,172
2023-01-23T14:06:16.520Z,168
2023-01-23T14:07:19.276Z,168
2023-01-23T14:08:16.536Z,168
2023-01-23T14:09:16.883Z,168
2023-01-23T14:10:16.504Z,172
2023-01-23T14:11:16.514Z,180
2023-01-23T14:12:19.610Z,180
2023-01-23T14:13:17.568Z,208
2023-01-23T14:14:19.844Z,212
2023-01-23T14:15:16.555Z,212
2023-01-23T14:16:16.532Z,216
2023-01-23T14:17:16.551Z,208
2023-01-23T14:18:16.565Z,196
2023-01-23T14:19:16.539Z,176
2023-01-23T14:20:16.757Z,184
2023-01-23T14:21:22.099Z,180
2023-01-23T14:22:16.600Z,168
2023-01-23T14:23:20.519Z,164
2023-01-23T14:24:16.537Z,180